»·PEaware :: FDX3650 KSLC-KBOI

FDX3650 :: KSLC-KBOI

FLIGHT INFORMATION

Flight Status: Arrived
Operator:
Federal Express
More flights by this operator :: More flights under this callsign
Pilot: David C. (16084)
Aircraft: BOEING 767-300
(B763)
More flights by this aircraft type
Origin: KSLC Salt Lake City Intl
United States
Destination: KBOI Boise Air Terminal/Gowen
United States
More flights between these airports :: More routes between these airports
Route: +CGULL1 TWF BROPH SPUUD3
File this flight plan on PilotEdge
Remarks:
Altitude:
(Current/Filed)
30,000ft
Speed:
(Current/Filed)
486kts
Departed: 08-Nov-20 05:49 PM
Arrived: 08-Nov-20 06:32 PM
Distance/Time
Traveled:
252nm/0:43
Distance/Time
To Go:
Arrived

Flight Plot

Page will automatically refresh every two minutes.

Flight plan parsing failed; only flown route is shown


Map Options




Map Legend


Flown Route
Filed Route
Departure Airport
Arrival Airport
Navaid (VOR, NDB)
Fix

Horizontal Profiles

Position Reports

Time Latitude Longitude Heading Altitude Ground
Speed
08-Nov-20 17:17 40.805343 -111.983380 174 4239ft 0kts
08-Nov-20 17:18 40.805343 -111.983380 174 4239ft 0kts
08-Nov-20 17:19 40.805343 -111.983380 174 4239ft 0kts
08-Nov-20 17:20 40.805343 -111.983380 174 4238ft 0kts
08-Nov-20 17:21 40.805343 -111.983380 174 4238ft 0kts
08-Nov-20 17:22 40.805343 -111.983380 174 4238ft 0kts
08-Nov-20 17:23 40.805343 -111.983380 174 4238ft 0kts
08-Nov-20 17:24 40.805343 -111.983380 174 4238ft 0kts
08-Nov-20 17:25 40.805343 -111.983380 174 4238ft 0kts
08-Nov-20 17:26 40.805343 -111.983380 174 4238ft 0kts
08-Nov-20 17:27 40.805343 -111.983380 174 4238ft 0kts
08-Nov-20 17:28 40.805343 -111.983380 174 4238ft 0kts
08-Nov-20 17:29 40.805343 -111.983380 174 4238ft 0kts
08-Nov-20 17:30 40.805343 -111.983380 174 4238ft 0kts
08-Nov-20 17:31 40.805343 -111.983380 174 4238ft 0kts
08-Nov-20 17:32 40.805343 -111.983380 173 4238ft 0kts
08-Nov-20 17:33 40.805343 -111.983380 173 4238ft 0kts
08-Nov-20 17:34 40.805343 -111.983380 174 4238ft 0kts
08-Nov-20 17:35 40.805343 -111.983380 174 4238ft 0kts
08-Nov-20 17:36 40.805343 -111.983380 174 4238ft 0kts
08-Nov-20 17:37 40.805512 -111.983414 171 4238ft 2kts
08-Nov-20 17:38 40.805936 -111.983546 153 4238ft 0kts
08-Nov-20 17:39 40.805935 -111.983545 153 4238ft 0kts
08-Nov-20 17:40 40.805935 -111.983545 153 4238ft 0kts
08-Nov-20 17:41 40.805935 -111.983545 153 4238ft 0kts
08-Nov-20 17:42 40.805935 -111.983545 153 4238ft 0kts
08-Nov-20 17:43 40.805896 -111.983506 139 4238ft 2kts
08-Nov-20 17:44 40.806120 -111.981960 82 4238ft 0kts
08-Nov-20 17:45 40.806705 -111.980624 21 4238ft 8kts
08-Nov-20 17:46 40.807376 -111.978924 83 4238ft 0kts
08-Nov-20 17:47 40.807120 -111.977225 133 4238ft 8kts
08-Nov-20 17:48 40.794606 -111.975429 175 4238ft 149kts
08-Nov-20 17:49 40.745971 -111.996045 254 6113ft 226kts
08-Nov-20 17:50 40.775010 -112.073660 306 8273ft 255kts
08-Nov-20 17:51 40.819321 -112.149089 306 10005ft 271kts
08-Nov-20 17:52 40.864421 -112.225566 306 10001ft 262kts
08-Nov-20 17:53 40.919796 -112.290076 323 11663ft 293kts
08-Nov-20 17:54 40.994315 -112.357542 323 13989ft 356kts
08-Nov-20 17:55 41.083077 -112.437268 326 16293ft 407kts
08-Nov-20 17:56 41.180065 -112.520354 320 18802ft 423kts
08-Nov-20 17:57 41.275263 -112.618378 315 21306ft 440kts
08-Nov-20 17:58 41.360401 -112.740351 309 23093ft 447kts
08-Nov-20 17:59 41.444422 -112.866006 308 25627ft 464kts
08-Nov-20 18:00 41.530795 -112.998355 309 28150ft 477kts
08-Nov-20 18:01 41.618944 -113.133953 310 29807ft 498kts
08-Nov-20 18:02 41.709460 -113.273845 310 29850ft 493kts
08-Nov-20 18:03 41.799444 -113.413594 310 29853ft 494kts
08-Nov-20 18:04 41.889584 -113.554247 310 29853ft 494kts
08-Nov-20 18:05 41.979283 -113.694874 309 29853ft 494kts
08-Nov-20 18:06 42.068609 -113.835571 309 29854ft 493kts
08-Nov-20 18:07 42.157834 -113.976790 309 29853ft 493kts
08-Nov-20 18:08 42.246881 -114.117751 309 29852ft 492kts
08-Nov-20 18:09 42.335887 -114.259192 309 29852ft 492kts
08-Nov-20 18:10 42.424615 -114.400886 309 29852ft 491kts
08-Nov-20 18:11 42.511956 -114.540561 310 28338ft 480kts
08-Nov-20 18:12 42.596394 -114.675373 309 26187ft 456kts
08-Nov-20 18:13 42.677553 -114.805534 309 24239ft 443kts
08-Nov-20 18:14 42.758337 -114.929130 312 22382ft 430kts
08-Nov-20 18:15 42.839392 -115.045319 312 20557ft 410kts
08-Nov-20 18:16 42.916523 -115.156558 313 18847ft 393kts
08-Nov-20 18:17 42.990795 -115.264322 313 16648ft 383kts
08-Nov-20 18:18 43.062700 -115.369056 313 14512ft 370kts
08-Nov-20 18:19 43.132449 -115.471019 313 12344ft 361kts
08-Nov-20 18:20 43.198643 -115.567915 313 11526ft 316kts
08-Nov-20 18:21 43.254408 -115.649736 313 11001ft 285kts
08-Nov-20 18:22 43.309569 -115.724157 316 9904ft 266kts
08-Nov-20 18:23 43.362466 -115.792116 316 9055ft 258kts
08-Nov-20 18:24 43.419024 -115.847261 327 8082ft 243kts
08-Nov-20 18:25 43.458955 -115.913240 295 6810ft 216kts
08-Nov-20 18:26 43.483083 -115.982965 295 5980ft 186kts
08-Nov-20 18:28 43.504059 -116.043895 295 5398ft 174kts
08-Nov-20 18:29 43.522914 -116.098761 295 4524ft 151kts
08-Nov-20 18:30 43.540799 -116.150915 295 3723ft 149kts
08-Nov-20 18:31 43.558414 -116.202487 294 2913ft 148kts
08-Nov-20 18:32 43.568141 -116.229045 18 2852ft 18kts
08-Nov-20 18:33 43.568243 -116.227663 113 2854ft 12kts
08-Nov-20 18:34 43.566489 -116.220785 92 2861ft 20kts
08-Nov-20 18:35 43.567630 -116.217135 78 2862ft 8kts
08-Nov-20 18:36 43.567011 -116.216569 204 2864ft 0kts
08-Nov-20 18:37 43.567011 -116.216569 204 2864ft 0kts
08-Nov-20 18:38 43.567011 -116.216569 204 2864ft 0kts
08-Nov-20 18:39 43.567011 -116.216569 204 2864ft 0kts

Navigation Log

Ident Type
Flight plan parsing failed, navigation log unavailable